Главная страница
METAR-TAF:

METAR-TAF

Аэропорты :

Лиепая, Латвия

широта: 56-31N, долгота: 021-05E, высота над уровнем моря: 5 м

Текущие метеонаблюдения

Эта сводка был подготовлена 27 минут назад, в 20:20 UTC
Ветер 2 Узел от южный
Температура 12°C
Влажность 76%
Давление 1016 hPa
Видимость 10 км и более

METAR: EVLA 132020Z AUTO 18002KT 9999 FEW023/// SCT026/// 12/08 Q1016

Время: 23:47 (20:47 UTC)

Прогноз

Эта сводка был подготовлена 41 минут назад, в 20:06 UTC
Прогноз действительный с 13-го 21 UTC до 14-го 21 UTC
Ветер 5 Узел от южный-юго-западный
Видимость 10 км и более
Отдельные облака на высоте 2000 фута
временами
С 13-го 21 UTC до 14-го 09 UTC
Отдельные облака на высоте 3000 фута, Кучево-дождевые.

TAF: EVLA 132006Z 1321/1421 21005KT 9999 SCT020 TEMPO 1321/1409 SCT030CB

Метеонаблюдения и прогнозы для более 4000 аэропортов (сводки METAR и TAF).

Имеющиеся станции представлены на карте желтыми и красными точками.

Чтобы увидеть название станции, наведите на нее мышь.

Затем щелкните, чтобы увидеть метеонаблюдения и метеопрогнозы.

Управление картой: чтобы увеличить масштаб, щелкните зеленые кнопки с черным крестиком; чтобы уменьшить масштаб, щелкните зеленую кнопку с тире; для просмотра соседних карт щелкайте зеленые стрелки.


METAR-TAF: